createdAt,value
2017-01-18T00:00:48.013Z,1.04
2017-01-18T00:01:58.756Z,1.02
2017-01-18T00:03:09.104Z,0.94
2017-01-18T00:04:19.858Z,1.02
2017-01-18T00:05:30.619Z,1
2017-01-18T00:06:40.976Z,1
2017-01-18T00:07:51.708Z,0.99
2017-01-18T00:09:02.084Z,0.93
2017-01-18T00:10:12.825Z,0.93
2017-01-18T00:11:23.609Z,0.92
2017-01-18T00:12:34.345Z,0.89
2017-01-18T00:13:45.077Z,0.85
2017-01-18T00:14:55.441Z,0.89
2017-01-18T00:16:05.001Z,0.92
2017-01-18T00:17:15.356Z,0.82
2017-01-18T00:18:25.314Z,0.9
2017-01-18T00:19:35.264Z,0.86
2017-01-18T00:20:45.602Z,0.94
2017-01-18T00:21:56.348Z,0.85
2017-01-18T00:23:07.092Z,0.9
2017-01-18T00:24:17.832Z,0.85
2017-01-18T00:25:28.623Z,0.92
2017-01-18T00:26:39.351Z,0.97
2017-01-18T00:27:50.092Z,0.85
2017-01-18T00:29:00.424Z,0.92
2017-01-18T00:30:10.792Z,0.82
2017-01-18T00:31:21.126Z,0.9
2017-01-18T00:32:31.498Z,0.96
2017-01-18T00:33:42.231Z,0.86
2017-01-18T00:34:52.973Z,0.92
2017-01-18T00:36:03.719Z,0.9
2017-01-18T00:37:14.084Z,0.89
2017-01-18T00:38:24.813Z,0.82
2017-01-18T00:39:35.571Z,0.84
2017-01-18T00:40:46.311Z,0.86
2017-01-18T00:41:56.283Z,0.76
2017-01-18T00:43:06.640Z,0.84
2017-01-18T00:44:16.984Z,0.82
2017-01-18T00:45:27.338Z,0.72
2017-01-18T00:46:38.078Z,0.82
2017-01-18T00:47:48.827Z,0.79
2017-01-18T00:48:59.598Z,0.78
2017-01-18T00:50:09.940Z,0.78
2017-01-18T00:51:20.308Z,0.76
2017-01-18T00:52:31.058Z,0.74
2017-01-18T00:53:41.009Z,0.79
2017-01-18T00:54:50.987Z,0.75
2017-01-18T00:56:01.324Z,0.71
2017-01-18T00:57:10.943Z,0.78
2017-01-18T00:58:21.274Z,0.67
2017-01-18T00:59:31.626Z,0.75
2017-01-18T01:00:42.367Z,0.66
2017-01-18T01:01:52.709Z,0.72
2017-01-18T01:03:03.069Z,0.72
2017-01-18T01:04:13.419Z,0.78
2017-01-18T01:05:24.193Z,0.64
2017-01-18T01:06:34.930Z,0.67
2017-01-18T01:07:45.666Z,0.72
2017-01-18T01:08:56.004Z,0.63
2017-01-18T01:10:06.734Z,0.71
2017-01-18T01:11:17.492Z,0.63
2017-01-18T01:12:28.242Z,0.63
2017-01-18T01:13:38.986Z,0.64
2017-01-18T01:14:49.337Z,0.64
2017-01-18T01:16:00.067Z,0.64
2017-01-18T01:17:10.404Z,0.61
2017-01-18T01:18:20.742Z,0.67
2017-01-18T01:19:30.698Z,0.64
2017-01-18T01:20:41.440Z,0.61
2017-01-18T01:21:51.793Z,0.58
2017-01-18T01:23:02.143Z,0.63
2017-01-18T01:24:12.092Z,0.48
2017-01-18T01:25:22.436Z,0.61
2017-01-18T01:26:32.779Z,0.63
2017-01-18T01:27:43.120Z,0.6
2017-01-18T01:28:53.068Z,0.52
2017-01-18T01:30:03.798Z,0.56
2017-01-18T01:31:13.350Z,0.52
2017-01-18T01:32:24.091Z,0.57
2017-01-18T01:33:34.838Z,0.48
2017-01-18T01:34:45.205Z,0.47
2017-01-18T01:35:55.549Z,0.47
2017-01-18T01:37:06.289Z,0.44
2017-01-18T01:38:16.626Z,0.45
2017-01-18T01:39:26.573Z,0.48
2017-01-18T01:40:36.903Z,0.47
2017-01-18T01:41:46.456Z,0.44
2017-01-18T01:42:57.203Z,0.48
2017-01-18T01:44:07.944Z,0.48
2017-01-18T01:45:18.296Z,0.45
2017-01-18T01:46:29.012Z,0.47
2017-01-18T01:47:38.964Z,0.45
2017-01-18T01:48:49.702Z,0.45
2017-01-18T01:50:00.442Z,0.45
2017-01-18T01:51:10.005Z,0.47
2017-01-18T01:52:20.350Z,0.48
2017-01-18T01:53:30.692Z,0.52
2017-01-18T01:54:41.438Z,0.52
2017-01-18T01:55:51.820Z,0.45
2017-01-18T01:57:01.767Z,0.44
2017-01-18T01:58:12.514Z,0.5
2017-01-18T01:59:23.251Z,0.44
2017-01-18T02:00:33.629Z,0.48
2017-01-18T02:01:43.970Z,0.47
2017-01-18T02:02:54.720Z,0.47
2017-01-18T02:04:05.458Z,0.52
2017-01-18T02:05:16.204Z,0.53
2017-01-18T02:06:26.540Z,0.37
2017-01-18T02:07:37.297Z,0.39
2017-01-18T02:08:47.625Z,0.34
2017-01-18T02:09:57.587Z,0.39
2017-01-18T02:11:07.962Z,0.42
2017-01-18T02:12:18.319Z,0.44
2017-01-18T02:13:28.653Z,0.41
2017-01-18T02:14:39.005Z,0.32
2017-01-18T02:15:49.770Z,0.42
2017-01-18T02:16:59.727Z,0.38
2017-01-18T02:18:10.472Z,0.31
2017-01-18T02:19:20.811Z,0.32
2017-01-18T02:20:31.176Z,0.28
2017-01-18T02:21:41.929Z,0.31
2017-01-18T02:22:52.667Z,0.28
2017-01-18T02:24:03.400Z,0.32
2017-01-18T02:25:14.138Z,0.32
2017-01-18T02:26:23.683Z,0.35
2017-01-18T02:27:33.622Z,0.26
2017-01-18T02:28:44.362Z,0.31
2017-01-18T02:29:54.316Z,0.31
2017-01-18T02:31:04.666Z,0.31
2017-01-18T02:32:15.038Z,0.31
2017-01-18T02:33:24.995Z,0.27
2017-01-18T02:34:34.558Z,0.31
2017-01-18T02:35:44.913Z,0.28
2017-01-18T02:36:54.859Z,0.32
2017-01-18T02:38:05.241Z,0.32
2017-01-18T02:39:16.016Z,0.31
2017-01-18T02:40:26.757Z,0.35
2017-01-18T02:41:36.758Z,0.26
2017-01-18T02:42:47.488Z,0.35
2017-01-18T02:43:58.247Z,0.28
2017-01-18T02:45:08.977Z,0.32
2017-01-18T02:46:19.332Z,0.31
2017-01-18T02:47:30.080Z,0.31
2017-01-18T02:48:40.034Z,0.35
2017-01-18T02:49:50.774Z,0.31
2017-01-18T02:51:01.530Z,0.38
2017-01-18T02:52:11.479Z,0.32
2017-01-18T02:53:21.804Z,0.28
2017-01-18T02:54:31.764Z,0.34
2017-01-18T02:55:42.117Z,0.32
2017-01-18T02:56:52.079Z,0.24
2017-01-18T02:58:02.021Z,0.35
2017-01-18T02:59:12.757Z,0.28
2017-01-18T03:00:23.124Z,0.35
2017-01-18T03:01:33.477Z,0.37
2017-01-18T03:32:52.229Z,-2.78
2017-01-18T03:34:02.966Z,-2.93
2017-01-18T03:35:13.708Z,-2.82
2017-01-18T03:36:23.655Z,-2.75
2017-01-18T03:37:34.007Z,-2.7
2017-01-18T03:38:44.341Z,-2.57
2017-01-18T03:39:55.077Z,-2.49
2017-01-18T03:41:05.407Z,-2.34
2017-01-18T03:42:16.135Z,-2.1
2017-01-18T03:43:26.865Z,-1.96
2017-01-18T03:44:37.221Z,-1.73
2017-01-18T03:45:47.589Z,-1.53
2017-01-18T03:46:57.939Z,-1.37
2017-01-18T03:48:08.286Z,-1.25
2017-01-18T03:49:19.037Z,-1.13
2017-01-18T03:50:29.371Z,-0.87
2017-01-18T03:51:40.126Z,-0.85
2017-01-18T03:52:50.077Z,-0.69
2017-01-18T03:54:00.050Z,-0.64
2017-01-18T03:55:09.996Z,-0.58
2017-01-18T03:56:20.334Z,-0.41
2017-01-18T03:57:31.060Z,-0.4
2017-01-18T03:58:41.428Z,-0.3
2017-01-18T03:59:52.165Z,-0.38
2017-01-18T04:01:02.110Z,-0.25
2017-01-18T04:02:12.851Z,-0.22
2017-01-18T04:03:23.199Z,-0.22
2017-01-18T04:04:33.927Z,-0.1
2017-01-18T04:05:44.267Z,-0.16
2017-01-18T04:06:54.614Z,0.01
2017-01-18T04:08:04.966Z,-0.12
2017-01-18T04:09:15.724Z,-0.01
2017-01-18T04:10:26.068Z,-0.09
2017-01-18T04:11:36.814Z,-0.04
2017-01-18T04:12:47.157Z,0.03
2017-01-18T04:13:58.131Z,0.02
2017-01-18T04:15:08.873Z,0.02
2017-01-18T04:16:18.847Z,0.01
2017-01-18T04:17:28.799Z,-0.01
2017-01-18T04:18:39.546Z,0.02
2017-01-18T04:19:49.893Z,0.01
2017-01-18T04:21:00.632Z,-0.04
2017-01-18T04:22:10.614Z,0.08
2017-01-18T04:23:20.960Z,0.02
2017-01-18T04:24:31.292Z,0.08
2017-01-18T04:25:40.839Z,0.13
2017-01-18T04:26:51.191Z,-0.02
2017-01-18T04:28:01.927Z,0.03
2017-01-18T04:29:12.269Z,0.09
2017-01-18T04:30:22.604Z,0.08
2017-01-18T04:31:33.341Z,0.16
2017-01-18T04:32:43.337Z,0.06
2017-01-18T04:33:53.695Z,0.08
2017-01-18T04:35:04.456Z,0.05
2017-01-18T04:36:15.227Z,0.06
2017-01-18T04:37:25.601Z,0.09
2017-01-18T04:38:36.332Z,0.09
2017-01-18T04:39:46.318Z,0.13
2017-01-18T04:40:57.076Z,0.08
2017-01-18T04:42:07.833Z,0.06
2017-01-18T04:43:18.573Z,0.01
2017-01-18T04:44:28.526Z,0.01
2017-01-18T04:45:39.262Z,-0.01
2017-01-18T04:46:49.608Z,0.02
2017-01-18T04:47:59.955Z,-0.02
2017-01-18T04:49:10.698Z,0.02
2017-01-18T04:50:21.428Z,-0.04
2017-01-18T04:51:32.180Z,-0.09
2017-01-18T04:52:42.523Z,-0.13
2017-01-18T04:53:53.263Z,-0.22
2017-01-18T04:55:04.019Z,-0.09
2017-01-18T04:56:14.358Z,-0.18
2017-01-18T04:57:25.083Z,-0.25
2017-01-18T04:58:35.044Z,-0.19
2017-01-18T04:59:45.386Z,-0.16
2017-01-18T05:00:54.965Z,-0.18
2017-01-18T05:02:05.701Z,-0.2
2017-01-18T05:03:16.438Z,-0.19
2017-01-18T05:04:27.171Z,-0.2
2017-01-18T05:05:37.909Z,-0.18
2017-01-18T05:06:48.652Z,-0.18
2017-01-18T05:07:58.985Z,-0.15
2017-01-18T05:09:09.331Z,-0.19
2017-01-18T05:10:19.667Z,-0.15
2017-01-18T05:11:29.615Z,-0.18
2017-01-18T05:12:40.345Z,-0.23
2017-01-18T05:13:51.081Z,-0.2
2017-01-18T05:15:01.814Z,-0.23
2017-01-18T05:16:12.150Z,-0.19
2017-01-18T05:17:22.888Z,-0.25
2017-01-18T05:18:33.614Z,-0.25
2017-01-18T05:19:44.359Z,-0.25
2017-01-18T05:20:55.101Z,-0.18
2017-01-18T05:22:05.829Z,-0.27
2017-01-18T05:23:15.795Z,-0.25
2017-01-18T05:24:25.762Z,-0.25
2017-01-18T05:25:36.491Z,-0.25
2017-01-18T05:26:47.240Z,-0.23
2017-01-18T05:27:57.566Z,-0.28
2017-01-18T05:29:07.534Z,-0.37
2017-01-18T05:30:18.280Z,-0.2
2017-01-18T05:31:29.008Z,-0.22
2017-01-18T05:32:39.363Z,-0.31
2017-01-18T05:33:49.310Z,-0.27
2017-01-18T05:34:59.276Z,-0.23
2017-01-18T05:36:09.229Z,-0.36
2017-01-18T05:37:19.971Z,-0.33
2017-01-18T05:38:30.332Z,-0.31
2017-01-18T05:39:41.075Z,-0.31
2017-01-18T05:40:51.427Z,-0.33
2017-01-18T05:42:02.172Z,-0.34
2017-01-18T05:43:12.507Z,-0.33
2017-01-18T05:44:23.251Z,-0.34
2017-01-18T05:45:34.013Z,-0.37
2017-01-18T05:46:44.786Z,-0.36
2017-01-18T05:47:55.136Z,-0.38
2017-01-18T05:49:05.874Z,-0.38
2017-01-18T05:50:16.607Z,-0.36
2017-01-18T05:51:26.571Z,-0.4
2017-01-18T05:52:37.332Z,-0.36
2017-01-18T05:53:47.704Z,-0.4
2017-01-18T05:54:58.442Z,-0.41
2017-01-18T05:56:09.173Z,-0.45
2017-01-18T05:57:19.910Z,-0.38
2017-01-18T05:58:30.647Z,-0.45
2017-01-18T05:59:40.979Z,-0.43
2017-01-18T06:00:51.715Z,-0.45
2017-01-18T06:02:02.048Z,-0.45
2017-01-18T06:03:12.385Z,-0.45
2017-01-18T06:04:22.335Z,-0.38
2017-01-18T06:05:32.694Z,-0.38
2017-01-18T06:06:43.450Z,-0.45
2017-01-18T06:07:54.210Z,-0.41
2017-01-18T06:09:04.930Z,-0.48
2017-01-18T06:10:15.293Z,-0.36
2017-01-18T06:11:26.031Z,-0.43
2017-01-18T06:12:36.778Z,-0.41
2017-01-18T06:13:47.525Z,-0.37
2017-01-18T06:14:58.271Z,-0.38
2017-01-18T06:16:09.040Z,-0.38
2017-01-18T06:17:19.780Z,-0.45
2017-01-18T06:18:30.121Z,-0.43
2017-01-18T06:19:40.858Z,-0.4
2017-01-18T06:20:51.606Z,-0.48
2017-01-18T06:22:02.362Z,-0.43
2017-01-18T06:23:13.094Z,-0.4
2017-01-18T06:24:23.050Z,-0.41
2017-01-18T06:25:32.598Z,-0.41
2017-01-18T06:26:43.345Z,-0.37
2017-01-18T06:27:54.081Z,-0.43
2017-01-18T06:29:04.827Z,-0.38
2017-01-18T06:30:15.564Z,-0.45
2017-01-18T06:31:26.312Z,-0.38
2017-01-18T06:32:37.039Z,-0.46
2017-01-18T06:33:47.387Z,-0.48
2017-01-18T06:34:58.136Z,-0.49
2017-01-18T06:36:08.482Z,-0.45
2017-01-18T06:37:19.219Z,-0.49
2017-01-18T06:38:29.958Z,-0.52
2017-01-18T06:39:40.714Z,-0.52
2017-01-18T06:40:51.459Z,-0.51
2017-01-18T06:42:01.807Z,-0.45
2017-01-18T06:43:12.541Z,-0.51
2017-01-18T06:44:23.291Z,-0.45
2017-01-18T06:45:34.044Z,-0.41
2017-01-18T06:46:44.388Z,-0.41
2017-01-18T06:47:55.139Z,-0.45
2017-01-18T06:49:05.473Z,-0.46
2017-01-18T06:50:15.827Z,-0.46
2017-01-18T06:51:26.186Z,-0.41
2017-01-18T06:52:36.142Z,-0.4
2017-01-18T06:53:46.505Z,-0.41
2017-01-18T06:54:57.261Z,-0.41
2017-01-18T06:56:08.008Z,-0.36
2017-01-18T06:57:18.365Z,-0.3
2017-01-18T06:58:28.318Z,-0.37
2017-01-18T06:59:38.669Z,-0.28
2017-01-18T07:00:49.030Z,-0.22
2017-01-18T07:01:59.781Z,-0.27
2017-01-18T07:03:10.131Z,-0.23
2017-01-18T07:04:20.466Z,-0.18
2017-01-18T07:05:31.202Z,-0.16
2017-01-18T07:06:41.564Z,-0.23
2017-01-18T07:07:51.915Z,-0.19
2017-01-18T07:09:02.662Z,-0.1
2017-01-18T07:10:13.436Z,-0.07
2017-01-18T07:11:24.191Z,-0.12
2017-01-18T07:12:34.928Z,-0.02
2017-01-18T07:13:45.666Z,0.01
2017-01-18T07:14:55.622Z,0.05
2017-01-18T07:16:05.994Z,0.05
2017-01-18T07:17:16.341Z,0.06
2017-01-18T07:18:26.677Z,0.14
2017-01-18T07:19:37.428Z,0.16
2017-01-18T07:20:48.163Z,0.28
2017-01-18T07:21:58.918Z,0.23
2017-01-18T07:23:09.278Z,0.21
2017-01-18T07:24:20.022Z,0.32
2017-01-18T07:25:30.387Z,0.31
2017-01-18T07:26:40.735Z,0.37
2017-01-18T07:27:51.117Z,0.35
2017-01-18T07:29:01.467Z,0.34
2017-01-18T07:30:12.199Z,0.47
2017-01-18T07:31:22.160Z,0.45
2017-01-18T07:32:32.142Z,0.47
2017-01-18T07:33:42.880Z,0.63
2017-01-18T07:34:53.620Z,0.6
2017-01-18T07:36:03.572Z,0.64
2017-01-18T07:37:14.305Z,0.69
2017-01-18T07:38:25.078Z,0.76
2017-01-18T07:39:35.834Z,0.75
2017-01-18T07:40:46.170Z,0.82
2017-01-18T07:41:56.912Z,0.81
2017-01-18T07:43:07.649Z,0.84
2017-01-18T07:44:18.025Z,0.92
2017-01-18T07:45:28.376Z,0.79
2017-01-18T07:46:38.321Z,0.79
2017-01-18T07:47:49.069Z,0.89
2017-01-18T07:48:59.817Z,0.97
2017-01-18T07:50:10.563Z,1.03
2017-01-18T07:51:20.919Z,1
2017-01-18T07:52:31.268Z,1.11
2017-01-18T07:53:42.015Z,1.14
2017-01-18T07:54:52.757Z,1.21
2017-01-18T07:56:03.115Z,1.18
2017-01-18T07:57:13.859Z,1.28
2017-01-18T07:58:24.231Z,1.33
2017-01-18T07:59:34.587Z,1.35
2017-01-18T08:00:45.564Z,1.44
2017-01-18T08:01:55.920Z,1.46
2017-01-18T08:03:06.648Z,1.58
2017-01-18T08:04:15.805Z,1.64
2017-01-18T08:05:25.755Z,1.54
2017-01-18T08:06:36.498Z,1.6
2017-01-18T08:07:46.454Z,1.64
2017-01-18T08:08:57.192Z,1.64
2017-01-18T08:10:07.949Z,1.72
2017-01-18T08:11:17.911Z,1.71
2017-01-18T08:12:28.636Z,1.71
2017-01-18T08:13:38.584Z,1.74
2017-01-18T08:14:49.325Z,1.69
2017-01-18T08:15:59.667Z,1.71
2017-01-18T08:17:10.018Z,1.79
2017-01-18T08:18:20.363Z,1.79
2017-01-18T08:19:30.713Z,1.86
2017-01-18T08:20:40.269Z,1.75
2017-01-18T08:21:51.015Z,1.83
2017-01-18T08:23:01.758Z,1.82
2017-01-18T08:24:12.104Z,1.94
2017-01-18T08:25:22.441Z,1.89
2017-01-18T08:26:32.796Z,1.93
2017-01-18T08:27:43.143Z,2.01
2017-01-18T08:28:53.490Z,2.08
2017-01-18T08:30:03.842Z,1.98
2017-01-18T08:31:13.410Z,2.06
2017-01-18T08:32:23.740Z,2.04
2017-01-18T08:33:34.087Z,2.18
2017-01-18T08:34:44.834Z,2.18
2017-01-18T08:35:55.571Z,2.18
2017-01-18T08:37:05.519Z,2.11
2017-01-18T08:38:16.253Z,2.23
2017-01-18T08:39:26.611Z,2.29
2017-01-18T08:40:37.363Z,2.3
2017-01-18T08:41:48.115Z,2.33
2017-01-18T08:42:58.463Z,2.34
2017-01-18T08:44:08.418Z,2.41
2017-01-18T08:45:18.756Z,2.49
2017-01-18T08:46:29.107Z,2.51
2017-01-18T08:47:39.453Z,2.63
2017-01-18T08:48:49.411Z,2.72
2017-01-18T08:50:00.152Z,2.55
2017-01-18T08:51:09.719Z,2.58
2017-01-18T08:52:20.481Z,2.62
2017-01-18T08:53:30.429Z,2.62
2017-01-18T08:54:41.172Z,2.59
2017-01-18T08:55:51.925Z,2.55
2017-01-18T08:57:02.272Z,2.51
2017-01-18T08:58:12.616Z,2.47
2017-01-18T08:59:22.955Z,2.63
2017-01-18T09:00:32.907Z,2.6
2017-01-18T09:01:42.868Z,2.63
2017-01-18T09:02:53.215Z,2.67
2017-01-18T09:04:03.558Z,2.62
2017-01-18T09:05:13.894Z,2.65
2017-01-18T09:06:23.836Z,2.72
2017-01-18T09:07:33.392Z,2.72
2017-01-18T09:08:43.348Z,2.7
2017-01-18T09:09:54.092Z,2.78
2017-01-18T09:11:04.858Z,2.72
2017-01-18T09:12:15.600Z,2.81
2017-01-18T09:13:26.356Z,2.73
2017-01-18T09:14:36.753Z,2.83
2017-01-18T09:15:47.499Z,3.08
2017-01-18T09:16:58.236Z,3.08
2017-01-18T09:18:09.224Z,3.13
2017-01-18T09:19:19.576Z,3.23
2017-01-18T09:20:29.556Z,3.11
2017-01-18T09:21:39.515Z,3.29
2017-01-18T09:22:49.465Z,3.29
2017-01-18T09:24:00.213Z,3.3
2017-01-18T09:25:10.957Z,3.3
2017-01-18T09:26:21.690Z,3.17
2017-01-18T09:27:32.048Z,3.19
2017-01-18T09:28:42.803Z,3.14
2017-01-18T09:29:53.550Z,3.4
2017-01-18T09:31:03.898Z,3.37
2017-01-18T09:32:14.255Z,3.29
2017-01-18T09:33:24.201Z,3.4
2017-01-18T09:34:34.942Z,3.37
2017-01-18T09:35:45.693Z,3.45
2017-01-18T09:36:56.439Z,3.48
2017-01-18T09:38:06.795Z,3.53
2017-01-18T09:39:17.540Z,3.51
2017-01-18T09:40:28.281Z,3.6
2017-01-18T09:41:39.018Z,3.84
2017-01-18T09:42:49.754Z,4.21
2017-01-18T09:44:00.119Z,4.29
2017-01-18T09:45:10.475Z,4.22
2017-01-18T09:46:21.223Z,4.21
2017-01-18T09:47:31.188Z,4.28
2017-01-18T09:48:41.545Z,4.24
2017-01-18T09:49:51.896Z,4.21
2017-01-18T09:51:02.647Z,4.3
2017-01-18T09:52:12.594Z,4.18
2017-01-18T09:53:22.158Z,4.15
2017-01-18T09:54:33.557Z,4.17
2017-01-18T09:55:46.641Z,4.17
2017-01-18T09:56:57.689Z,4.07
2017-01-18T09:58:08.433Z,3.96
2017-01-18T09:59:18.775Z,4.02
2017-01-18T10:00:29.117Z,4.12
2017-01-18T10:01:39.845Z,4.21
2017-01-18T10:02:50.191Z,4.36
2017-01-18T10:04:00.922Z,4.5
2017-01-18T10:05:10.899Z,4.48
2017-01-18T10:06:21.456Z,4.36
2017-01-18T10:07:31.574Z,4.33
2017-01-18T10:08:42.314Z,4.56
2017-01-18T10:09:52.676Z,4.61
2017-01-18T10:11:02.623Z,4.83
2017-01-18T10:12:12.624Z,4.92
2017-01-18T10:13:23.380Z,4.83
2017-01-18T10:14:33.328Z,4.79
2017-01-18T10:15:43.655Z,5.05
2017-01-18T10:16:54.011Z,5.03
2017-01-18T10:18:03.583Z,4.78
2017-01-18T10:19:14.328Z,4.95
2017-01-18T10:20:24.680Z,4.98
2017-01-18T10:21:35.429Z,5.06
2017-01-18T10:22:45.764Z,4.98
2017-01-18T10:23:56.507Z,5.16
2017-01-18T10:25:06.856Z,5.3
2017-01-18T10:26:17.199Z,5.49
2017-01-18T10:27:27.942Z,5.64
2017-01-18T10:28:38.280Z,5.89
2017-01-18T10:29:48.632Z,6.07
2017-01-18T10:30:59.049Z,6.39
2017-01-18T10:32:09.792Z,6.36
2017-01-18T10:33:20.538Z,6.03
2017-01-18T10:34:31.333Z,5.75
2017-01-18T10:35:42.074Z,5.63
2017-01-18T10:36:52.651Z,5.62
2017-01-18T10:38:03.010Z,5.48
2017-01-18T10:39:13.754Z,5.51
2017-01-18T10:40:23.717Z,5.37
2017-01-18T10:41:34.527Z,5.16
2017-01-18T10:42:44.869Z,5.02
2017-01-18T10:43:54.852Z,4.84
2017-01-18T10:45:05.208Z,4.68
2017-01-18T10:46:15.959Z,4.56
2017-01-18T10:47:26.705Z,4.65
2017-01-18T10:48:37.060Z,4.74
2017-01-18T10:49:47.405Z,4.79
2017-01-18T10:50:58.150Z,5.33
2017-01-18T10:52:08.531Z,5.62
2017-01-18T10:53:18.881Z,5.77
2017-01-18T10:54:29.241Z,5.51
2017-01-18T10:55:39.589Z,5.2
2017-01-18T10:56:50.334Z,4.88
2017-01-18T10:58:01.082Z,4.64
2017-01-18T10:59:11.444Z,4.61
2017-01-18T11:00:22.200Z,4.65
2017-01-18T11:01:32.157Z,4.83
2017-01-18T11:02:42.923Z,4.87
2017-01-18T11:03:53.289Z,5.03
2017-01-18T11:05:04.027Z,5.16
2017-01-18T11:06:14.773Z,5.16
2017-01-18T11:07:25.511Z,5.49
2017-01-18T11:08:35.463Z,5.34
2017-01-18T11:09:45.812Z,5.23
2017-01-18T11:10:56.157Z,4.97
2017-01-18T11:12:06.115Z,4.83
2017-01-18T11:13:16.855Z,4.57
2017-01-18T11:14:27.201Z,4.5
2017-01-18T11:15:37.539Z,4.48
2017-01-18T11:16:47.494Z,4.54
2017-01-18T11:17:58.245Z,4.53
2017-01-18T11:19:09.018Z,4.58
2017-01-18T11:20:19.365Z,4.83
2017-01-18T11:21:30.118Z,5.31
2017-01-18T11:22:40.498Z,5.67
2017-01-18T11:23:50.455Z,5.95
2017-01-18T11:25:00.403Z,5.92
2017-01-18T11:26:11.148Z,5.91
2017-01-18T11:27:21.096Z,5.88
2017-01-18T11:28:31.053Z,6
2017-01-18T11:29:41.789Z,6.06
2017-01-18T11:30:51.347Z,5.72
2017-01-18T11:32:01.682Z,5.57
2017-01-18T11:33:12.424Z,5.55
2017-01-18T11:34:23.197Z,5.51
2017-01-18T11:35:33.944Z,5.33
2017-01-18T11:36:44.298Z,5.1
2017-01-18T11:37:54.680Z,5.06
2017-01-18T11:39:05.082Z,4.87
2017-01-18T11:40:15.818Z,4.79
2017-01-18T11:41:25.782Z,4.74
2017-01-18T11:42:36.542Z,4.75
2017-01-18T11:43:47.520Z,4.74
2017-01-18T11:44:58.267Z,4.75
2017-01-18T11:46:08.628Z,4.84
2017-01-18T11:47:18.986Z,4.79
2017-01-18T11:48:29.742Z,4.84
2017-01-18T11:49:39.689Z,5.03
2017-01-18T11:50:50.045Z,5
2017-01-18T11:52:00.426Z,5.08
2017-01-18T11:53:11.183Z,5.08
2017-01-18T11:54:21.681Z,5.1
2017-01-18T11:55:32.070Z,5.09
2017-01-18T11:56:42.827Z,5.09
2017-01-18T11:57:53.561Z,5.12
2017-01-18T11:59:03.515Z,5.12
2017-01-18T12:00:12.688Z,5.13
2017-01-18T12:01:23.431Z,5.05
2017-01-18T12:02:33.783Z,5.05
2017-01-18T12:03:44.538Z,4.94
2017-01-18T12:04:55.292Z,4.83
2017-01-18T12:06:06.066Z,4.71
2017-01-18T12:07:15.639Z,4.5
2017-01-18T12:08:26.037Z,4.35
2017-01-18T12:09:36.788Z,4.29
2017-01-18T12:10:47.382Z,4.14
2017-01-18T12:11:58.132Z,4.21
2017-01-18T12:13:08.497Z,4.14
2017-01-18T12:14:19.230Z,4.39
2017-01-18T12:15:29.176Z,4.58
2017-01-18T12:16:39.137Z,4.58
2017-01-18T12:17:49.717Z,5.06
2017-01-18T12:19:00.069Z,5.51
2017-01-18T12:20:10.827Z,5.66
2017-01-18T12:21:20.386Z,5.69
2017-01-18T12:22:30.722Z,5.49
2017-01-18T12:23:41.079Z,5.23
2017-01-18T12:24:51.439Z,5.1
2017-01-18T12:26:02.201Z,4.95
2017-01-18T12:27:12.949Z,4.92
2017-01-18T12:28:23.067Z,4.84
2017-01-18T12:29:33.459Z,4.72
2017-01-18T12:30:44.378Z,4.72
2017-01-18T12:31:55.899Z,4.61
2017-01-18T12:33:07.422Z,4.53
2017-01-18T12:34:18.573Z,4.35
2017-01-18T12:35:29.917Z,4.28
2017-01-18T12:36:41.391Z,4.12
2017-01-18T12:37:52.663Z,4
2017-01-18T12:39:03.901Z,3.79
2017-01-18T12:40:15.961Z,3.72
2017-01-18T12:41:27.080Z,3.69
2017-01-18T12:42:37.432Z,3.72
2017-01-18T12:43:47.807Z,3.69
2017-01-18T12:44:57.763Z,3.71
2017-01-18T12:46:07.722Z,3.81
2017-01-18T12:47:18.503Z,3.97
2017-01-18T12:48:28.841Z,4.22
2017-01-18T12:49:39.598Z,4.29
2017-01-18T12:50:50.379Z,4.51
2017-01-18T12:52:00.731Z,4.51
2017-01-18T12:53:11.503Z,4.5
2017-01-18T12:54:22.299Z,4.5
2017-01-18T12:55:33.064Z,4.46
2017-01-18T12:56:43.837Z,4.42
2017-01-18T12:57:54.581Z,4.5
2017-01-18T12:59:06.558Z,4.39
2017-01-18T13:00:17.550Z,4.33
2017-01-18T13:01:28.315Z,4.4
2017-01-18T13:02:38.674Z,4.36
2017-01-18T13:03:49.416Z,4.26
2017-01-18T13:04:59.378Z,4.2
2017-01-18T13:06:09.341Z,4.33
2017-01-18T13:07:19.680Z,4.14
2017-01-18T13:08:30.032Z,4.04
2017-01-18T13:09:40.374Z,3.85
2017-01-18T13:10:50.721Z,3.84
2017-01-18T13:12:00.677Z,3.74
2017-01-18T13:13:11.425Z,3.63
2017-01-18T13:14:21.785Z,3.54
2017-01-18T13:15:32.155Z,3.6
2017-01-18T13:16:42.900Z,3.61
2017-01-18T13:17:52.838Z,3.64
2017-01-18T13:19:03.595Z,3.72
2017-01-18T13:20:14.335Z,3.81
2017-01-18T13:21:25.067Z,3.9
2017-01-18T13:22:35.414Z,3.94
2017-01-18T13:23:45.013Z,3.93
2017-01-18T13:24:55.787Z,4.15
2017-01-18T13:26:06.328Z,4.22
2017-01-18T13:27:17.092Z,4.22
2017-01-18T13:28:27.428Z,4.18
2017-01-18T13:29:37.783Z,4.15
2017-01-18T13:30:47.737Z,4.15
2017-01-18T13:31:58.483Z,4.24
2017-01-18T13:33:09.258Z,4.15
2017-01-18T13:34:18.425Z,4.24
2017-01-18T13:35:29.162Z,4.18
2017-01-18T13:36:39.520Z,4.14
2017-01-18T13:37:50.256Z,4.12
2017-01-18T13:39:00.222Z,4.14
2017-01-18T13:40:10.569Z,4.15
2017-01-18T13:41:21.333Z,4.17
2017-01-18T13:42:32.095Z,4.15
2017-01-18T13:43:42.454Z,4.24
2017-01-18T13:44:52.811Z,4.21
2017-01-18T13:46:03.558Z,4.15
2017-01-18T13:47:13.911Z,4.03
2017-01-18T13:48:24.694Z,3.93
2017-01-18T13:49:35.042Z,3.81
2017-01-18T13:50:45.389Z,3.76
2017-01-18T13:51:55.743Z,3.69
2017-01-18T13:53:06.089Z,3.64
2017-01-18T13:54:16.470Z,3.64
2017-01-18T13:55:26.846Z,3.57
2017-01-18T13:56:36.808Z,3.56
2017-01-18T13:57:47.553Z,3.43
2017-01-18T13:58:57.907Z,3.3
2017-01-18T14:00:08.278Z,3.3
2017-01-18T14:01:18.628Z,3.32
2017-01-18T14:02:29.373Z,3.34
2017-01-18T14:03:39.723Z,3.37
2017-01-18T14:04:50.060Z,3.42
2017-01-18T14:06:00.403Z,3.51
2017-01-18T14:07:11.150Z,3.51
2017-01-18T14:08:21.112Z,3.56
2017-01-18T14:09:31.482Z,3.54
2017-01-18T14:10:42.939Z,3.54
2017-01-18T14:11:53.341Z,3.54
2017-01-18T14:13:04.084Z,3.53
2017-01-18T14:14:14.433Z,3.46
2017-01-18T14:15:24.397Z,3.37
2017-01-18T14:16:35.149Z,3.37
2017-01-18T14:17:45.505Z,3.24
2017-01-18T14:18:56.278Z,3.11
2017-01-18T14:20:07.023Z,3.17
2017-01-18T14:21:17.395Z,3.09
2017-01-18T14:22:26.950Z,3.06
2017-01-18T14:23:37.688Z,3.05
2017-01-18T14:24:48.433Z,2.99
2017-01-18T14:25:58.400Z,3.02
2017-01-18T14:27:09.147Z,2.99
2017-01-18T14:28:19.893Z,3.11
2017-01-18T14:29:30.252Z,3.11
2017-01-18T14:30:41.008Z,3.14
2017-01-18T14:31:51.362Z,3.13
2017-01-18T14:33:02.118Z,3.23
2017-01-18T14:34:12.867Z,3.21
2017-01-18T14:35:23.227Z,3.21
2017-01-18T14:36:33.173Z,3.27
2017-01-18T14:37:43.900Z,3.34
2017-01-18T14:38:53.869Z,3.3
2017-01-18T14:40:04.275Z,3.13
2017-01-18T14:41:14.635Z,3.03
2017-01-18T14:42:25.388Z,2.98
2017-01-18T14:43:35.362Z,2.91
2017-01-18T14:44:45.716Z,2.91
2017-01-18T14:45:56.116Z,2.98
2017-01-18T14:47:06.483Z,2.77
2017-01-18T14:48:16.837Z,2.7
2017-01-18T14:49:27.185Z,2.76
2017-01-18T14:50:37.939Z,2.7
2017-01-18T14:51:47.890Z,2.63
2017-01-18T14:52:57.841Z,2.63
2017-01-18T14:54:08.199Z,2.54
2017-01-18T14:55:18.955Z,2.47
2017-01-18T14:56:29.336Z,2.45
2017-01-18T14:57:39.669Z,2.47
2017-01-18T14:58:50.414Z,2.4
2017-01-18T15:00:01.156Z,2.31
2017-01-18T15:01:11.512Z,2.31
2017-01-18T15:02:21.857Z,2.3
2017-01-18T15:03:32.212Z,2.23
2017-01-18T15:04:42.963Z,2.2
2017-01-18T15:05:53.720Z,2.2
2017-01-18T15:07:03.661Z,2.18
2017-01-18T15:08:13.632Z,2.02
2017-01-18T15:09:23.974Z,2.01
2017-01-18T15:10:34.327Z,2.08
2017-01-18T15:11:45.089Z,2.01
2017-01-18T15:12:55.454Z,1.98
2017-01-18T15:14:05.395Z,2.01
2017-01-18T15:15:16.141Z,1.94
2017-01-18T15:16:26.879Z,1.92
2017-01-18T15:17:37.216Z,1.94
2017-01-18T15:18:47.206Z,1.93
2017-01-18T15:19:57.562Z,1.83
2017-01-18T15:21:08.314Z,1.86
2017-01-18T15:22:19.047Z,1.82
2017-01-18T15:23:29.402Z,1.87
2017-01-18T15:24:39.768Z,1.87
2017-01-18T15:25:50.515Z,1.79
2017-01-18T15:27:01.253Z,1.74
2017-01-18T15:28:11.599Z,1.78
2017-01-18T15:29:21.940Z,1.82
2017-01-18T15:30:32.312Z,1.86
2017-01-18T15:31:42.656Z,1.74
2017-01-18T15:32:52.997Z,1.75
2017-01-18T15:34:02.947Z,1.71
2017-01-18T15:35:13.290Z,1.83
2017-01-18T15:36:23.655Z,1.65
2017-01-18T15:37:33.609Z,1.74
2017-01-18T15:38:44.382Z,1.65
2017-01-18T15:39:55.132Z,1.69
2017-01-18T15:41:05.883Z,1.69
2017-01-18T15:42:16.235Z,1.65
2017-01-18T15:43:27.012Z,1.61
2017-01-18T15:44:37.377Z,1.57
2017-01-18T15:45:48.164Z,1.58
2017-01-18T15:48:07.940Z,1.5
2017-01-18T15:49:18.270Z,1.4
2017-01-18T15:50:29.018Z,1.5
2017-01-18T15:51:39.372Z,1.32
2017-01-18T15:52:50.118Z,1.32
2017-01-18T15:54:00.856Z,1.35
2017-01-18T15:55:11.197Z,1.22
2017-01-18T15:56:21.403Z,1.22
2017-01-18T15:57:31.755Z,1.2
2017-01-18T15:58:42.503Z,1.21
2017-01-18T15:59:53.286Z,1.18
2017-01-18T16:01:03.631Z,1.2
2017-01-18T16:02:14.380Z,1.2
2017-01-18T16:03:25.151Z,1.07
2017-01-18T16:04:35.512Z,1.11
2017-01-18T16:05:45.873Z,1.02